Moline, Ohio
Current Conditions -  °F | °C
As of 10:53 AM on Friday 21 Nov 2014 (Local Time) from KTDZ Reporting Station
Clear Clear  
Wind Chill: 13°   Ceiling: Unl
Heat Index: 22°   Visibility: 10mi
Dew Point: 10°   Wind: 8mph
Humidity: 60%   Direction: 210°SSW
Pressure: 30.51"   Gusts: NA
Location:  41.5666°N, 83.5031°W
Report Text: KTDZ 211553Z AUTO 21007KT 10SM CLR M06/M12 A3051 RMK AO2 SLP340 T10561122 TSNO
Loading
Personal Weather Stations






























Interactive Weather Map New forecast layout! Learn more

10-Day Weather Forecast

Advertisements
Track Severe Weather on mobile